Union, ME (04862)

12:48 PM EDT on August 31, 2015 (GMT -0400)
Appleton Village | | Change Station
CLOSE
Current Station
Personal Weather Station
Location: Appleton, ME
Elevation: 167 ft
Nearby Weather Stations

Elev 167 ft 44.29 °N, 69.25 °W | Updated 2 minutes ago

Clear
Clear
82.9 °F
Feels Like 85 °F
N
3.2
Wind Variable Wind from ESE

Today
High -- | Low -- °F
--% Chance of Precip.
Yesterday
High -- | Low -- °F
Precip. -- in
5:58 AM 7:15 PM
Waning Gibbous, 94% visible
Pressure 29.83 in
Visibility 10.0 miles
Clouds Few 5000 ft
Heat Index 85 °F
Dew Point 64 °F
Humidity 54%
Rainfall 0.00 in
Snow Depth Not available.
UV 8 out of 12
Pollen 7.50 out of 12
Air Quality Not available.
Flu Activity Not available.
METAR KRKD 311635Z AUTO 24009KT 10SM FEW050 27/17 A2983 RMK AO1
Pressure 29.83 in
Visibility 10.0 miles
Clouds Few 5000 ft
Heat Index 85 °F
Dew Point 64 °F
Humidity 54%
Rainfall 0.00 in
Snow Depth Not available.
UV 8 out of 12
Pollen 7.50 out of 12
Air Quality Not available.
Flu Activity Not available.
METAR KRKD 311635Z AUTO 24009KT 10SM FEW050 27/17 A2983 RMK AO1

10-Day Weather Forecast

×

Almanac

Astronomy

Aug. 31, 2015 Rise Set
Actual Time
Civil Twilight
Nautical Twilight
Astronomical Twilight
Moon
Length of Visible Light
Length of Day
Tomorrow will be .
, % of the Moon is Illuminated

Today's Extremes

State Highs State Lows

Community

WunderPhotos

Upload Photos

1,851,307 photos uploaded!

WunderBlogs® & News

Nearby

Air Quality

  Air Quality AQ Index Pollutant
Not available.

Snow Depth

Station Depth Elevation

Earthquake Activity

City Distance Mag. Time & Date
Minimum magnitude displayed is 2.5.

Coastal Water Temperatures

Place Temperature

Stations

Nearby Weather Stations

Station Location Temp. Windchill Dew Point Humidity Wind Precip. Elev Updated Type